createdAt,value
2024-02-29T00:01:04.316Z,12.25
2024-02-29T00:03:40.947Z,12.17
2024-02-29T00:06:08.302Z,12.16
2024-02-29T00:08:45.308Z,12.25
2024-02-29T00:11:18.784Z,12.34
2024-02-29T00:13:53.680Z,12.28
2024-02-29T00:16:23.884Z,12.27
2024-02-29T00:18:51.496Z,12.31
2024-02-29T00:21:19.572Z,12.31
2024-02-29T00:23:46.746Z,12.22
2024-02-29T00:26:15.266Z,12.32
2024-02-29T00:28:43.051Z,12.31
2024-02-29T00:31:10.513Z,12.31
2024-02-29T00:33:45.630Z,12.25
2024-02-29T00:36:30.093Z,12.21
2024-02-29T00:39:05.873Z,12.16
2024-02-29T00:41:40.764Z,12.28
2024-02-29T00:44:07.836Z,12.25
2024-02-29T00:46:35.654Z,12.21
2024-02-29T00:49:02.612Z,12.28
2024-02-29T00:51:29.880Z,12.28
2024-02-29T00:53:57.312Z,12.23
2024-02-29T00:56:24.754Z,12.15
2024-02-29T00:58:51.887Z,12.14
2024-02-29T01:01:18.881Z,12.18
2024-02-29T01:03:45.918Z,12.01
2024-02-29T01:06:12.952Z,11.27
2024-02-29T01:08:40.548Z,10.73
2024-02-29T01:11:10.543Z,10.29
2024-02-29T01:13:37.941Z,10.30
2024-02-29T01:16:04.957Z,10.23
2024-02-29T01:18:31.895Z,10.09
2024-02-29T01:20:59.208Z,10.04
2024-02-29T01:23:26.693Z,10.14
2024-02-29T01:25:53.840Z,10.13
2024-02-29T01:28:22.235Z,10.07
2024-02-29T01:30:50.319Z,9.76
2024-02-29T01:33:17.545Z,9.53
2024-02-29T01:35:45.144Z,9.50
2024-02-29T01:38:13.947Z,9.42
2024-02-29T01:40:40.813Z,9.29
2024-02-29T01:43:07.850Z,9.38
2024-02-29T01:45:34.874Z,9.27
2024-02-29T01:48:02.523Z,9.53
2024-02-29T01:50:29.412Z,9.68
2024-02-29T01:52:57.287Z,9.47
2024-02-29T01:55:24.568Z,9.49
2024-02-29T01:57:56.005Z,9.76
2024-02-29T02:00:23.142Z,9.79
2024-02-29T02:02:50.078Z,10.25
2024-02-29T02:05:17.842Z,10.60
2024-02-29T02:07:47.310Z,10.21
2024-02-29T02:10:14.437Z,9.94
2024-02-29T02:12:41.716Z,9.86
2024-02-29T02:15:10.034Z,10.17
2024-02-29T02:17:37.319Z,9.91
2024-02-29T02:20:04.329Z,9.98
2024-02-29T02:22:31.650Z,10.39
2024-02-29T02:24:58.594Z,10.66
2024-02-29T02:27:25.569Z,10.57
2024-02-29T02:29:52.843Z,11.03
2024-02-29T02:32:20.126Z,11.14
2024-02-29T02:34:47.233Z,11.35
2024-02-29T02:37:14.315Z,11.26
2024-02-29T02:39:41.744Z,10.99
2024-02-29T02:42:09.074Z,11.07
2024-02-29T02:44:36.870Z,11.15
2024-02-29T02:47:05.306Z,11.22
2024-02-29T02:49:33.026Z,11.32
2024-02-29T02:52:00.996Z,11.29
2024-02-29T02:54:30.886Z,11.49
2024-02-29T02:56:58.210Z,11.63
2024-02-29T02:59:25.506Z,11.65
2024-02-29T03:01:52.818Z,11.67
2024-02-29T03:04:20.062Z,11.62
2024-02-29T03:06:49.173Z,11.43
2024-02-29T03:09:16.745Z,11.57
2024-02-29T03:11:44.137Z,11.05
2024-02-29T03:14:11.688Z,10.88
2024-02-29T03:16:38.852Z,11.12
2024-02-29T03:19:06.376Z,10.64
2024-02-29T03:21:34.044Z,10.67
2024-02-29T03:24:02.667Z,10.80
2024-02-29T03:26:30.362Z,10.43
2024-02-29T03:29:00.325Z,10.52
2024-02-29T03:31:28.298Z,10.32
2024-02-29T03:33:55.611Z,10.62
2024-02-29T03:36:23.010Z,10.38
2024-02-29T03:38:50.527Z,10.65
2024-02-29T03:41:17.693Z,10.66
2024-02-29T03:43:46.395Z,10.65
2024-02-29T03:46:19.786Z,10.80
2024-02-29T03:48:47.078Z,10.42
2024-02-29T03:51:14.229Z,10.58
2024-02-29T03:53:41.714Z,10.77
2024-02-29T03:56:09.017Z,10.88
2024-02-29T03:58:39.280Z,10.93
2024-02-29T04:01:06.534Z,10.85
2024-02-29T04:03:34.397Z,10.37
2024-02-29T04:06:01.755Z,10.53
2024-02-29T04:08:29.275Z,10.51
2024-02-29T04:10:56.929Z,10.42
2024-02-29T04:13:25.809Z,10.79
2024-02-29T04:15:55.844Z,10.59
2024-02-29T04:18:26.848Z,10.79
2024-02-29T04:20:54.738Z,11.12
2024-02-29T04:23:24.809Z,10.91
2024-02-29T04:25:51.679Z,10.80
2024-02-29T04:28:23.092Z,10.63
2024-02-29T04:30:50.374Z,10.80
2024-02-29T04:33:17.424Z,10.29
2024-02-29T04:35:44.673Z,10.23
2024-02-29T04:38:11.947Z,10.34
2024-02-29T04:40:39.024Z,10.50
2024-02-29T04:43:06.282Z,10.44
2024-02-29T04:45:33.366Z,10.79
2024-02-29T04:48:00.439Z,10.55
2024-02-29T04:50:27.692Z,10.50
2024-02-29T04:52:54.593Z,10.44
2024-02-29T04:55:21.562Z,10.41
2024-02-29T04:57:50.646Z,10.80
2024-02-29T05:00:18.056Z,10.32
2024-02-29T05:02:45.078Z,10.37
2024-02-29T05:05:12.359Z,10.42
2024-02-29T05:07:42.490Z,10.37
2024-02-29T05:10:09.741Z,10.48
2024-02-29T05:12:36.805Z,10.71
2024-02-29T05:15:03.829Z,10.71
2024-02-29T05:17:30.957Z,10.40
2024-02-29T05:19:57.970Z,10.37
2024-02-29T05:22:24.908Z,10.31
2024-02-29T05:24:52.283Z,10.45
2024-02-29T05:27:20.891Z,10.66
2024-02-29T05:29:51.653Z,10.49
2024-02-29T05:32:20.200Z,10.61
2024-02-29T05:34:47.096Z,10.80
2024-02-29T05:37:16.576Z,11.01
2024-02-29T05:39:43.526Z,10.64
2024-02-29T05:42:10.933Z,10.73
2024-02-29T05:44:38.108Z,10.50
2024-02-29T05:47:05.083Z,10.47
2024-02-29T05:49:32.249Z,10.15
2024-02-29T05:51:59.249Z,10.42
2024-02-29T05:54:26.496Z,10.76
2024-02-29T05:56:53.855Z,10.77
2024-02-29T05:59:25.777Z,11.00
2024-02-29T06:01:53.504Z,10.80
2024-02-29T06:04:20.607Z,11.11
2024-02-29T06:06:47.816Z,11.24
2024-02-29T06:09:14.706Z,10.41
2024-02-29T06:11:42.001Z,10.34
2024-02-29T06:14:09.048Z,10.89
2024-02-29T06:16:36.379Z,11.09
2024-02-29T06:19:03.510Z,10.81
2024-02-29T06:21:30.804Z,11.13
2024-02-29T06:23:57.870Z,11.27
2024-02-29T06:26:24.904Z,11.26
2024-02-29T06:28:52.993Z,11.35
2024-02-29T06:31:20.196Z,11.55
2024-02-29T06:33:48.588Z,11.02
2024-02-29T06:36:15.743Z,11.43
2024-02-29T06:38:43.064Z,11.59
2024-02-29T06:41:10.908Z,11.18
2024-02-29T06:43:38.712Z,11.54
2024-02-29T06:46:06.015Z,11.63
2024-02-29T06:48:33.476Z,11.75
2024-02-29T06:51:02.028Z,11.71
2024-02-29T06:53:29.838Z,11.78
2024-02-29T06:55:57.436Z,11.74
2024-02-29T06:58:24.805Z,11.85
2024-02-29T07:00:52.399Z,12.08
2024-02-29T07:03:20.423Z,12.02
2024-02-29T07:05:48.315Z,11.87
2024-02-29T07:08:15.982Z,11.84
2024-02-29T07:10:43.338Z,12.01
2024-02-29T07:13:11.366Z,11.96
2024-02-29T07:15:41.594Z,11.76
2024-02-29T07:18:09.115Z,11.60
2024-02-29T07:20:36.714Z,11.77
2024-02-29T07:23:05.260Z,12.08
2024-02-29T07:25:32.905Z,12.24
2024-02-29T07:28:00.177Z,12.24
2024-02-29T07:30:27.702Z,12.34
2024-02-29T07:32:55.139Z,12.24
2024-02-29T07:35:23.750Z,12.03
2024-02-29T07:37:53.828Z,12.18
2024-02-29T07:40:22.481Z,12.24
2024-02-29T07:42:50.401Z,12.29
2024-02-29T07:45:20.462Z,12.48
2024-02-29T07:47:48.961Z,12.26
2024-02-29T07:50:16.335Z,12.49
2024-02-29T07:52:43.846Z,12.56
2024-02-29T07:55:12.025Z,12.66
2024-02-29T07:57:39.497Z,12.63
2024-02-29T08:00:06.980Z,12.83
2024-02-29T08:02:34.772Z,12.85
2024-02-29T08:05:01.861Z,12.53
2024-02-29T08:07:29.448Z,13.01
2024-02-29T08:09:57.414Z,12.69
2024-02-29T08:12:31.809Z,13.05
2024-02-29T08:15:07.285Z,13.10
2024-02-29T08:17:34.263Z,13.08
2024-02-29T08:20:01.331Z,13.03
2024-02-29T08:22:28.655Z,13.27
2024-02-29T08:24:55.871Z,13.29
2024-02-29T08:27:23.187Z,13.23
2024-02-29T08:29:50.291Z,13.15
2024-02-29T08:32:17.368Z,13.25
2024-02-29T08:34:44.723Z,13.01
2024-02-29T08:37:12.035Z,13.25
2024-02-29T08:39:39.306Z,12.69
2024-02-29T08:42:06.822Z,12.83
2024-02-29T08:44:33.883Z,12.77
2024-02-29T08:47:01.520Z,13.34
2024-02-29T08:49:29.095Z,13.75
2024-02-29T08:51:56.394Z,13.36
2024-02-29T08:54:23.283Z,13.46
2024-02-29T08:56:50.370Z,14.00
2024-02-29T08:59:18.816Z,13.93
2024-02-29T09:01:46.295Z,13.50
2024-02-29T09:04:13.629Z,13.99
2024-02-29T09:06:42.062Z,13.76
2024-02-29T09:09:09.914Z,13.54
2024-02-29T09:11:37.216Z,13.62
2024-02-29T09:14:04.769Z,13.63
2024-02-29T09:16:32.897Z,13.73
2024-02-29T09:19:03.848Z,13.80
2024-02-29T09:21:31.982Z,13.96
2024-02-29T09:23:59.712Z,14.07
2024-02-29T09:26:28.500Z,14.27
2024-02-29T09:28:55.829Z,14.47
2024-02-29T09:31:23.359Z,14.27
2024-02-29T09:33:50.816Z,14.28
2024-02-29T09:36:18.589Z,14.61
2024-02-29T09:38:46.028Z,14.63
2024-02-29T09:43:45.524Z,14.21
2024-02-29T09:46:14.207Z,14.42
2024-02-29T09:48:41.530Z,14.18
2024-02-29T09:51:09.209Z,13.75
2024-02-29T09:53:36.564Z,14.19
2024-02-29T09:56:03.829Z,13.88
2024-02-29T09:58:30.962Z,13.48
2024-02-29T10:00:58.717Z,14.00
2024-02-29T10:03:26.176Z,14.13
2024-02-29T10:05:55.116Z,14.02
2024-02-29T10:08:22.474Z,13.78
2024-02-29T10:10:51.556Z,13.85
2024-02-29T10:13:20.212Z,13.52
2024-02-29T10:15:48.180Z,13.84
2024-02-29T10:18:16.226Z,13.87
2024-02-29T10:20:44.475Z,14.17
2024-02-29T10:23:11.777Z,14.19
2024-02-29T10:25:39.364Z,13.95
2024-02-29T10:28:06.957Z,13.79
2024-02-29T10:30:38.688Z,13.38
2024-02-29T10:33:05.941Z,13.95
2024-02-29T10:35:33.132Z,14.06
2024-02-29T10:38:01.120Z,13.82
2024-02-29T10:40:28.706Z,13.84
2024-02-29T10:42:56.749Z,13.69
2024-02-29T10:45:26.849Z,13.91
2024-02-29T10:47:54.653Z,13.92
2024-02-29T10:50:22.319Z,13.85
2024-02-29T10:52:49.925Z,13.97
2024-02-29T10:55:17.074Z,13.43
2024-02-29T10:57:44.693Z,13.88
2024-02-29T11:00:11.973Z,13.68
2024-02-29T11:02:39.780Z,13.41
2024-02-29T11:05:07.004Z,13.33
2024-02-29T11:07:35.386Z,13.71
2024-02-29T11:10:02.998Z,13.52
2024-02-29T11:12:30.410Z,13.27
2024-02-29T11:14:58.081Z,13.20
2024-02-29T11:17:25.385Z,13.47
2024-02-29T11:19:57.380Z,13.03
2024-02-29T11:22:25.094Z,13.27
2024-02-29T11:24:52.404Z,13.40
2024-02-29T11:27:19.706Z,13.54
2024-02-29T11:29:47.348Z,13.23
2024-02-29T11:32:15.088Z,13.39
2024-02-29T11:34:42.337Z,13.58
2024-02-29T11:37:09.737Z,13.49
2024-02-29T11:39:37.039Z,13.43
2024-02-29T11:42:04.757Z,13.35
2024-02-29T11:44:31.960Z,13.23
2024-02-29T11:46:59.441Z,13.26
2024-02-29T11:49:26.920Z,13.19
2024-02-29T11:51:54.410Z,13.13
2024-02-29T11:54:24.202Z,13.34
2024-02-29T11:56:53.134Z,13.43
2024-02-29T11:59:20.512Z,13.45
2024-02-29T12:01:50.545Z,13.28
2024-02-29T12:04:17.981Z,13.41
2024-02-29T12:06:45.534Z,13.20
2024-02-29T12:09:12.636Z,13.07
2024-02-29T12:11:40.200Z,13.20
2024-02-29T12:14:07.441Z,13.27
2024-02-29T12:16:34.684Z,13.32
2024-02-29T12:19:02.086Z,13.49
2024-02-29T12:21:29.348Z,13.53
2024-02-29T12:23:56.573Z,13.36
2024-02-29T12:26:23.562Z,13.48
2024-02-29T12:28:50.561Z,13.51
2024-02-29T12:31:17.595Z,13.39
2024-02-29T12:33:44.902Z,13.10
2024-02-29T12:36:12.332Z,13.18
2024-02-29T12:38:39.337Z,12.99
2024-02-29T12:41:06.802Z,12.96
2024-02-29T12:43:33.749Z,13.12
2024-02-29T12:46:00.830Z,13.25
2024-02-29T12:48:28.088Z,13.47
2024-02-29T12:50:56.132Z,13.38
2024-02-29T12:53:23.505Z,13.47
2024-02-29T12:55:50.738Z,13.45
2024-02-29T12:58:17.973Z,13.44
2024-02-29T13:00:46.052Z,13.44
2024-02-29T13:03:13.431Z,13.41
2024-02-29T13:05:41.282Z,13.61
2024-02-29T13:08:09.274Z,13.68
2024-02-29T13:10:37.058Z,13.92
2024-02-29T13:13:10.116Z,13.86
2024-02-29T13:15:38.407Z,14.01
2024-02-29T13:18:05.822Z,14.13
2024-02-29T13:20:33.115Z,13.75
2024-02-29T13:23:00.545Z,13.43
2024-02-29T13:25:28.631Z,13.62
2024-02-29T13:27:57.311Z,13.66
2024-02-29T13:30:27.779Z,13.86
2024-02-29T13:32:55.308Z,13.83
2024-02-29T13:35:22.947Z,13.65
2024-02-29T13:37:50.133Z,13.46
2024-02-29T13:40:17.728Z,13.75
2024-02-29T13:42:45.851Z,13.83
2024-02-29T13:45:13.388Z,13.76
2024-02-29T13:47:40.825Z,14.01
2024-02-29T13:50:08.324Z,13.82
2024-02-29T13:52:35.786Z,14.10
2024-02-29T13:55:03.085Z,14.08
2024-02-29T13:57:30.836Z,14.22
2024-02-29T13:59:58.474Z,14.16
2024-02-29T14:02:26.492Z,13.92
2024-02-29T14:04:54.039Z,13.65
2024-02-29T14:07:21.764Z,13.78
2024-02-29T14:09:49.071Z,13.70
2024-02-29T14:12:17.272Z,13.80
2024-02-29T14:14:44.500Z,13.88
2024-02-29T14:17:12.216Z,13.90
2024-02-29T14:19:39.329Z,13.79
2024-02-29T14:22:06.735Z,13.71
2024-02-29T14:24:34.240Z,13.53
2024-02-29T14:27:01.775Z,13.60
2024-02-29T14:29:31.259Z,13.82
2024-02-29T14:31:58.952Z,13.80
2024-02-29T14:34:26.131Z,13.90
2024-02-29T14:36:53.251Z,13.64
2024-02-29T14:39:20.391Z,13.76
2024-02-29T14:41:48.250Z,13.71
2024-02-29T14:44:15.901Z,13.82
2024-02-29T14:46:42.935Z,13.98
2024-02-29T14:49:11.912Z,13.57
2024-02-29T14:51:39.403Z,13.62
2024-02-29T14:54:06.638Z,13.57
2024-02-29T14:56:33.786Z,13.84
2024-02-29T14:59:00.691Z,13.73
2024-02-29T15:01:27.726Z,13.83
2024-02-29T15:03:55.597Z,13.77
2024-02-29T15:06:23.212Z,13.59
2024-02-29T15:08:51.018Z,13.89
2024-02-29T15:11:18.134Z,13.79
2024-02-29T15:13:45.470Z,13.66
2024-02-29T15:16:12.596Z,13.06
2024-02-29T15:18:39.797Z,13.22
2024-02-29T15:21:07.438Z,13.30
2024-02-29T15:23:34.940Z,13.50
2024-02-29T15:26:03.268Z,13.28
2024-02-29T15:28:30.861Z,13.34
2024-02-29T15:30:58.431Z,13.55
2024-02-29T15:33:26.029Z,13.63
2024-02-29T15:35:53.607Z,13.46
2024-02-29T15:38:21.161Z,13.18
2024-02-29T15:40:48.546Z,12.87
2024-02-29T15:43:16.221Z,13.25
2024-02-29T15:45:43.699Z,13.17
2024-02-29T15:48:12.294Z,13.36
2024-02-29T15:50:40.409Z,13.38
2024-02-29T15:53:07.648Z,12.96
2024-02-29T15:55:35.810Z,13.15
2024-02-29T15:58:03.620Z,13.27
2024-02-29T16:00:31.121Z,13.45
2024-02-29T16:02:58.744Z,13.20
2024-02-29T16:05:26.322Z,12.74
2024-02-29T16:07:55.781Z,12.92
2024-02-29T16:10:23.547Z,13.07
2024-02-29T16:12:51.177Z,13.16
2024-02-29T16:15:19.751Z,13.23
2024-02-29T16:17:47.023Z,13.17
2024-02-29T16:20:14.848Z,13.16
2024-02-29T16:22:42.506Z,13.26
2024-02-29T16:25:10.091Z,12.96
2024-02-29T16:27:38.168Z,12.67
2024-02-29T16:30:05.988Z,12.87
2024-02-29T16:32:33.496Z,12.73
2024-02-29T16:35:00.619Z,12.25
2024-02-29T16:37:27.867Z,11.97
2024-02-29T16:39:55.155Z,11.69
2024-02-29T16:42:22.918Z,11.55
2024-02-29T16:44:51.392Z,11.48
2024-02-29T16:47:19.068Z,11.48
2024-02-29T16:49:46.479Z,11.40
2024-02-29T16:52:14.089Z,11.49
2024-02-29T16:54:41.189Z,11.95
2024-02-29T16:57:08.255Z,12.19
2024-02-29T16:59:35.286Z,12.00
2024-02-29T17:02:02.352Z,12.05
2024-02-29T17:04:29.786Z,12.10
2024-02-29T17:06:56.809Z,12.11
2024-02-29T17:09:24.251Z,11.93
2024-02-29T17:11:51.641Z,11.93
2024-02-29T17:14:18.609Z,11.71
2024-02-29T17:16:45.702Z,11.93
2024-02-29T17:19:12.670Z,11.75
2024-02-29T17:21:41.721Z,11.91
2024-02-29T17:24:09.633Z,11.48
2024-02-29T17:26:36.635Z,11.05
2024-02-29T17:29:03.741Z,10.61
2024-02-29T17:31:30.943Z,10.57
2024-02-29T17:33:58.002Z,10.57
2024-02-29T17:36:24.882Z,10.55
2024-02-29T17:38:51.807Z,10.31
2024-02-29T17:41:18.799Z,10.43
2024-02-29T17:43:46.142Z,10.48
2024-02-29T17:46:13.243Z,10.04
2024-02-29T17:48:41.155Z,10.03
2024-02-29T17:51:08.570Z,10.22
2024-02-29T17:53:35.667Z,10.28
2024-02-29T17:56:03.048Z,10.34
2024-02-29T17:58:30.028Z,10.44
2024-02-29T18:00:57.153Z,10.55
2024-02-29T18:03:24.123Z,10.67
2024-02-29T18:05:51.476Z,10.84
2024-02-29T18:08:18.802Z,11.07
2024-02-29T18:10:45.914Z,10.78
2024-02-29T18:13:13.001Z,10.81
2024-02-29T18:15:40.336Z,10.95
2024-02-29T18:18:07.701Z,11.07
2024-02-29T18:20:35.057Z,10.89
2024-02-29T18:23:02.225Z,10.93
2024-02-29T18:25:29.499Z,10.85
2024-02-29T18:27:56.515Z,11.03
2024-02-29T18:30:23.528Z,11.31
2024-02-29T18:32:50.635Z,9.97
2024-02-29T18:35:23.589Z,10.92
2024-02-29T18:37:53.583Z,11.09
2024-02-29T18:40:21.031Z,11.26
2024-02-29T18:42:48.602Z,10.76
2024-02-29T18:45:15.738Z,10.81
2024-02-29T18:47:42.667Z,11.31
2024-02-29T18:50:12.211Z,11.37
2024-02-29T18:52:41.272Z,11.51
2024-02-29T18:55:08.604Z,11.52
2024-02-29T18:57:36.439Z,11.63
2024-02-29T19:00:03.649Z,11.65
2024-02-29T19:02:31.078Z,11.64
2024-02-29T19:04:58.838Z,11.64
2024-02-29T19:07:27.950Z,11.55
2024-02-29T19:09:57.589Z,11.53
2024-02-29T19:12:34.260Z,11.63
2024-02-29T19:15:02.536Z,11.63
2024-02-29T19:17:30.461Z,11.53
2024-02-29T19:20:01.330Z,11.57
2024-02-29T19:22:28.850Z,11.59
2024-02-29T19:24:56.612Z,11.53
2024-02-29T19:27:24.311Z,11.27
2024-02-29T19:29:52.592Z,11.50
2024-02-29T19:32:20.046Z,11.61
2024-02-29T19:34:47.511Z,11.57
2024-02-29T19:37:15.124Z,11.71
2024-02-29T19:39:42.716Z,11.74
2024-02-29T19:42:10.713Z,11.77
2024-02-29T19:44:39.610Z,11.77
2024-02-29T19:47:07.307Z,11.70
2024-02-29T19:49:34.605Z,11.75
2024-02-29T19:52:02.613Z,11.75
2024-02-29T19:54:30.326Z,11.76
2024-02-29T19:56:57.626Z,11.63
2024-02-29T19:59:25.181Z,11.58
2024-02-29T20:01:55.337Z,11.71
2024-02-29T20:04:26.220Z,10.98
2024-02-29T20:06:55.620Z,11.21
2024-02-29T20:09:24.244Z,11.26
2024-02-29T20:11:51.290Z,11.40
2024-02-29T20:14:18.397Z,11.52
2024-02-29T20:16:45.443Z,11.49
2024-02-29T20:19:13.888Z,11.45
2024-02-29T20:21:41.841Z,11.53
2024-02-29T20:24:09.192Z,11.60
2024-02-29T20:26:36.222Z,11.50
2024-02-29T20:29:03.603Z,11.49
2024-02-29T20:31:32.343Z,11.59
2024-02-29T20:33:59.802Z,11.37
2024-02-29T20:36:26.908Z,11.24
2024-02-29T20:38:55.268Z,11.17
2024-02-29T20:41:22.634Z,10.87
2024-02-29T20:43:49.553Z,11.12
2024-02-29T20:46:16.708Z,11.36
2024-02-29T20:48:44.090Z,11.44
2024-02-29T20:51:11.283Z,11.48
2024-02-29T20:53:38.327Z,11.45
2024-02-29T20:56:05.428Z,11.41
2024-02-29T20:58:32.781Z,11.40
2024-02-29T21:01:06.498Z,11.05
2024-02-29T21:03:33.537Z,10.75
2024-02-29T21:06:00.676Z,10.73
2024-02-29T21:08:28.198Z,10.68
2024-02-29T21:10:55.477Z,11.07
2024-02-29T21:13:32.767Z,11.33
2024-02-29T21:16:00.722Z,11.40
2024-02-29T21:18:29.216Z,11.43
2024-02-29T21:20:57.596Z,11.55
2024-02-29T21:23:24.794Z,11.64
2024-02-29T21:25:52.069Z,11.71
2024-02-29T21:28:21.749Z,11.67
2024-02-29T21:30:52.201Z,11.48
2024-02-29T21:33:22.807Z,11.67
2024-02-29T21:35:51.570Z,11.59
2024-02-29T21:38:22.449Z,11.70
2024-02-29T21:40:51.207Z,11.78
2024-02-29T21:43:18.108Z,11.76
2024-02-29T21:45:48.680Z,11.46
2024-02-29T21:48:15.811Z,11.52
2024-02-29T21:50:47.036Z,11.50
2024-02-29T21:53:15.827Z,11.65
2024-02-29T21:55:42.748Z,11.67
2024-02-29T21:58:15.176Z,11.71
2024-02-29T22:00:46.435Z,11.68
2024-02-29T22:03:13.561Z,11.61
2024-02-29T22:05:43.283Z,11.67
2024-02-29T22:08:17.273Z,11.66
2024-02-29T22:11:43.361Z,11.73
2024-02-29T22:13:56.961Z,11.64
2024-02-29T22:16:28.301Z,11.08
2024-02-29T22:22:01.067Z,11.49
2024-02-29T22:24:28.043Z,11.29
2024-02-29T22:26:57.806Z,11.52
2024-02-29T22:29:27.009Z,11.64
2024-02-29T22:31:54.277Z,11.70
2024-02-29T22:34:24.054Z,11.28
2024-02-29T22:36:51.453Z,11.47
2024-02-29T22:39:23.571Z,11.43
2024-02-29T22:41:57.545Z,11.58
2024-02-29T22:44:31.693Z,11.67
2024-02-29T22:46:58.957Z,11.69
2024-02-29T22:49:29.898Z,11.64
2024-02-29T22:51:57.664Z,11.69
2024-02-29T22:54:28.579Z,11.68
2024-02-29T22:57:01.572Z,11.68
2024-02-29T22:59:33.628Z,11.61
2024-02-29T23:02:03.924Z,11.54
2024-02-29T23:04:31.151Z,11.65
2024-02-29T23:07:01.272Z,11.42
2024-02-29T23:09:31.357Z,11.10
2024-02-29T23:11:58.594Z,11.33
2024-02-29T23:14:25.765Z,10.93
2024-02-29T23:16:57.994Z,11.19
2024-02-29T23:19:24.978Z,11.42
2024-02-29T23:21:52.076Z,11.72
2024-02-29T23:24:21.636Z,11.71
2024-02-29T23:26:48.766Z,10.91
2024-02-29T23:29:15.761Z,11.01
2024-02-29T23:31:45.446Z,11.27
2024-02-29T23:34:14.626Z,11.22
2024-02-29T23:36:41.868Z,11.22
2024-02-29T23:39:11.228Z,10.88
2024-02-29T23:41:38.141Z,10.79
2024-02-29T23:44:13.145Z,10.96
2024-02-29T23:46:53.422Z,11.27
2024-02-29T23:49:20.290Z,11.44
2024-02-29T23:51:50.522Z,11.46
2024-02-29T23:54:17.901Z,11.67
2024-02-29T23:56:45.150Z,11.83
2024-02-29T23:59:15.229Z,11.40
